Time;durP1;ratioP1;P1;durP2;ratioP2;P2;SDS_P1;SDS_P2;PMS_P1;PMS_P2;Temp;Humidity;BMP_temperature;BMP_pressure;BME280_temperature;BME280_humidity;BME280_pressure;Samples;Min_cycle;Max_cycle;Signal;HPM_P1;HPM_P2
2023/10/11 00:00:53;;;;;;;11.10;5.13;;;;;;;;;;5095186;28;20321;-43
2023/10/11 00:03:32;;;;;;;9.57;4.37;;;;;;;;;;5102227;28;20229;-39
2023/10/11 00:06:00;;;;;;;9.17;4.67;;;;;;;;;;5087067;28;20333;-37
2023/10/11 00:08:29;;;;;;;8.47;4.80;;;;;;;;;;5085928;28;20208;-35
2023/10/11 00:10:59;;;;;;;8.87;4.77;;;;;;;;;;5082736;28;20323;-34
2023/10/11 00:13:28;;;;;;;8.13;5.13;;;;;;;;;;5083968;28;20209;-42
2023/10/11 00:15:56;;;;;;;11.23;5.40;;;;;;;;;;5082685;28;20570;-39
2023/10/11 00:18:26;;;;;;;8.97;4.67;;;;;;;;;;5090634;28;20312;-38
2023/10/11 00:20:57;;;;;;;7.97;4.43;;;;;;;;;;5087275;28;20263;-39
2023/10/11 00:23:25;;;;;;;6.27;4.20;;;;;;;;;;5074254;28;20206;-41
2023/10/11 00:25:53;;;;;;;11.27;4.60;;;;;;;;;;5084118;28;20213;-38
2023/10/11 00:28:23;;;;;;;7.80;4.37;;;;;;;;;;5077480;28;20304;-35
2023/10/11 00:30:52;;;;;;;9.17;4.80;;;;;;;;;;5090449;28;20236;-38
2023/10/11 00:33:21;;;;;;;7.37;4.03;;;;;;;;;;5090480;28;20210;-40
2023/10/11 00:35:49;;;;;;;8.37;4.47;;;;;;;;;;5086376;28;20208;-36
2023/10/11 00:38:18;;;;;;;9.30;4.60;;;;;;;;;;5082229;28;20319;-39
2023/10/11 00:41:00;;;;;;;10.13;5.13;;;;;;;;;;5088934;28;20236;-43
2023/10/11 00:43:34;;;;;;;9.13;4.40;;;;;;;;;;5077017;28;20217;-36
2023/10/11 00:46:05;;;;;;;7.90;4.50;;;;;;;;;;5082350;28;20316;-40
2023/10/11 00:48:35;;;;;;;11.97;5.30;;;;;;;;;;5089042;28;20290;-38
2023/10/11 00:51:02;;;;;;;10.37;5.30;;;;;;;;;;5083881;28;20316;-38
2023/10/11 00:53:34;;;;;;;8.37;4.53;;;;;;;;;;5089736;28;20293;-37
2023/10/11 00:56:02;;;;;;;7.63;4.63;;;;;;;;;;5082937;28;20211;-42
2023/10/11 00:58:29;;;;;;;8.53;4.80;;;;;;;;;;5077632;28;20231;-36
2023/10/11 01:00:56;;;;;;;11.37;5.50;;;;;;;;;;5080865;28;20306;-35
2023/10/11 01:03:23;;;;;;;7.60;4.87;;;;;;;;;;5087842;28;20287;-39
2023/10/11 01:05:55;;;;;;;7.47;4.73;;;;;;;;;;5087832;28;20276;-39
2023/10/11 01:08:22;;;;;;;10.63;5.10;;;;;;;;;;5081991;28;20298;-42
2023/10/11 01:10:50;;;;;;;11.00;4.73;;;;;;;;;;5076727;28;20233;-41
2023/10/11 01:13:18;;;;;;;11.13;4.43;;;;;;;;;;5080215;28;20210;-37
2023/10/11 01:15:47;;;;;;;10.40;5.00;;;;;;;;;;5087050;28;20205;-40
2023/10/11 01:18:14;;;;;;;7.67;4.40;;;;;;;;;;5088313;28;20229;-38
2023/10/11 01:20:43;;;;;;;8.10;4.40;;;;;;;;;;5088549;28;20261;-39
2023/10/11 01:23:10;;;;;;;11.37;4.93;;;;;;;;;;5076192;28;20206;-33
2023/10/11 01:25:37;;;;;;;7.70;4.33;;;;;;;;;;5085133;28;20206;-40
2023/10/11 01:28:04;;;;;;;10.17;4.00;;;;;;;;;;5075702;28;20201;-37
2023/10/11 01:30:31;;;;;;;8.93;4.37;;;;;;;;;;5085243;28;20235;-40
2023/10/11 01:32:59;;;;;;;9.47;4.57;;;;;;;;;;5088238;28;20301;-34
2023/10/11 01:35:35;;;;;;;10.03;5.17;;;;;;;;;;5084721;28;20289;-36
2023/10/11 01:38:05;;;;;;;8.70;5.23;;;;;;;;;;5087794;28;20259;-39
2023/10/11 01:40:33;;;;;;;6.23;4.17;;;;;;;;;;5088197;28;20225;-38
2023/10/11 01:43:02;;;;;;;11.57;4.77;;;;;;;;;;5070373;28;20204;-36
2023/10/11 01:45:31;;;;;;;10.63;5.43;;;;;;;;;;5085246;28;20255;-39
2023/10/11 01:47:58;;;;;;;12.03;5.07;;;;;;;;;;5088265;28;20208;-41
2023/10/11 01:50:25;;;;;;;7.77;4.13;;;;;;;;;;5088126;28;20280;-36
2023/10/11 01:52:52;;;;;;;6.37;3.60;;;;;;;;;;5082303;28;20214;-39
2023/10/11 01:55:22;;;;;;;11.90;4.70;;;;;;;;;;5083879;28;20289;-35
2023/10/11 01:57:50;;;;;;;9.67;4.97;;;;;;;;;;5077676;28;20214;-38
2023/10/11 02:00:23;;;;;;;6.70;4.13;;;;;;;;;;5089592;28;20274;-40
2023/10/11 02:02:55;;;;;;;7.23;4.27;;;;;;;;;;5089758;28;20205;-38
2023/10/11 02:05:22;;;;;;;6.40;4.13;;;;;;;;;;5088751;28;20203;-40
2023/10/11 02:07:50;;;;;;;10.67;4.73;;;;;;;;;;5085803;28;20207;-35
2023/10/11 02:10:25;;;;;;;9.23;4.33;;;;;;;;;;5084831;28;20239;-36
2023/10/11 02:12:57;;;;;;;10.03;4.80;;;;;;;;;;5087060;28;20209;-35
2023/10/11 02:15:28;;;;;;;10.93;4.70;;;;;;;;;;5087112;28;20212;-34
2023/10/11 02:17:55;;;;;;;9.50;4.43;;;;;;;;;;5089855;28;20235;-39
2023/10/11 02:20:23;;;;;;;11.90;4.93;;;;;;;;;;5089126;28;20220;-37
2023/10/11 02:22:51;;;;;;;8.30;4.47;;;;;;;;;;5080089;28;20242;-40
2023/10/11 02:25:19;;;;;;;11.20;4.70;;;;;;;;;;5087828;28;20209;-37
2023/10/11 02:27:49;;;;;;;8.07;4.37;;;;;;;;;;5082454;28;20206;-36
2023/10/11 02:30:21;;;;;;;8.20;4.33;;;;;;;;;;5087330;28;20244;-40
2023/10/11 02:32:49;;;;;;;9.83;4.97;;;;;;;;;;5088104;28;20205;-38
2023/10/11 02:35:18;;;;;;;7.43;4.43;;;;;;;;;;5083743;28;20199;-35
2023/10/11 02:37:46;;;;;;;13.23;4.63;;;;;;;;;;5069083;28;20262;-41
2023/10/11 02:40:16;;;;;;;7.87;4.50;;;;;;;;;;5087521;28;20311;-38
2023/10/11 02:42:45;;;;;;;9.17;4.63;;;;;;;;;;5073602;28;20225;-38
2023/10/11 02:45:14;;;;;;;10.17;4.37;;;;;;;;;;5087633;28;20234;-38
2023/10/11 02:47:42;;;;;;;8.90;4.93;;;;;;;;;;5086802;28;20207;-36
2023/10/11 02:50:10;;;;;;;8.73;4.70;;;;;;;;;;5080361;28;20698;-42
2023/10/11 02:52:37;;;;;;;11.50;4.87;;;;;;;;;;5084446;28;20205;-35
2023/10/11 02:55:17;;;;;;;8.03;4.43;;;;;;;;;;5087246;28;20200;-37
2023/10/11 02:57:44;;;;;;;8.40;4.60;;;;;;;;;;5077034;28;20287;-41
2023/10/11 03:00:21;;;;;;;8.30;4.03;;;;;;;;;;5086896;28;20319;-38
2023/10/11 03:02:54;;;;;;;9.30;4.67;;;;;;;;;;5087993;28;20196;-33
2023/10/11 03:05:26;;;;;;;8.07;4.70;;;;;;;;;;5088077;28;20295;-37
2023/10/11 03:07:54;;;;;;;10.50;4.70;;;;;;;;;;5077045;28;20209;-42
2023/10/11 03:10:21;;;;;;;10.90;4.23;;;;;;;;;;5077135;28;20240;-37
2023/10/11 03:12:50;;;;;;;8.70;4.10;;;;;;;;;;5076420;28;20227;-36
2023/10/11 03:15:19;;;;;;;8.20;4.77;;;;;;;;;;5087178;28;20212;-38
2023/10/11 03:17:52;;;;;;;6.87;4.40;;;;;;;;;;5091351;28;20220;-39
2023/10/11 03:20:26;;;;;;;9.17;4.70;;;;;;;;;;5083904;28;20261;-38
2023/10/11 03:22:53;;;;;;;10.70;4.83;;;;;;;;;;5081231;28;20215;-39
2023/10/11 03:25:21;;;;;;;8.03;4.17;;;;;;;;;;5084053;28;20201;-41
2023/10/11 03:27:49;;;;;;;9.90;4.37;;;;;;;;;;5075808;28;20200;-37
2023/10/11 03:30:16;;;;;;;7.20;3.87;;;;;;;;;;5070714;28;20243;-40
2023/10/11 03:32:44;;;;;;;7.53;4.03;;;;;;;;;;5079560;28;20211;-42
2023/10/11 03:35:16;;;;;;;11.67;4.60;;;;;;;;;;5076999;28;20201;-32
2023/10/11 03:37:57;;;;;;;5.87;4.20;;;;;;;;;;5076165;28;20221;-40
2023/10/11 03:40:34;;;;;;;12.50;5.03;;;;;;;;;;5078028;28;20224;-37
2023/10/11 03:43:02;;;;;;;5.87;4.37;;;;;;;;;;5080568;28;20208;-37
2023/10/11 03:45:34;;;;;;;9.70;4.70;;;;;;;;;;5083233;28;20213;-36
2023/10/11 03:48:02;;;;;;;7.13;4.63;;;;;;;;;;5082903;28;20200;-34
2023/10/11 03:50:34;;;;;;;7.47;4.37;;;;;;;;;;5082034;28;20232;-39
2023/10/11 03:53:10;;;;;;;11.07;5.43;;;;;;;;;;5083739;28;20237;-36
2023/10/11 03:55:45;;;;;;;7.47;4.47;;;;;;;;;;5081482;28;20208;-38
2023/10/11 03:58:15;;;;;;;11.60;4.73;;;;;;;;;;5076057;28;20228;-41
2023/10/11 04:00:47;;;;;;;8.83;4.87;;;;;;;;;;5081995;28;20229;-38
2023/10/11 04:03:17;;;;;;;5.70;4.00;;;;;;;;;;5081526;28;20204;-36
2023/10/11 04:05:47;;;;;;;9.43;6.03;;;;;;;;;;5080032;28;20219;-36
2023/10/11 04:08:24;;;;;;;6.63;4.10;;;;;;;;;;5085927;28;20194;-38
2023/10/11 04:10:53;;;;;;;7.70;4.30;;;;;;;;;;5083056;28;20236;-41
2023/10/11 04:13:25;;;;;;;9.10;3.73;;;;;;;;;;5078006;28;20258;-38
2023/10/11 04:15:54;;;;;;;10.67;4.57;;;;;;;;;;5087840;28;20211;-38
2023/10/11 04:18:33;;;;;;;6.43;3.70;;;;;;;;;;5089151;28;20221;-37
2023/10/11 04:21:16;;;;;;;12.10;4.80;;;;;;;;;;5073341;28;20224;-32
2023/10/11 04:23:46;;;;;;;7.20;3.60;;;;;;;;;;5079294;28;20200;-35
2023/10/11 04:29:06;;;;;;;9.20;4.50;;;;;;;;;;5083738;28;20223;-38
2023/10/11 04:31:36;;;;;;;6.60;4.13;;;;;;;;;;5077738;28;20228;-37
2023/10/11 04:34:11;;;;;;;6.67;3.90;;;;;;;;;;5085951;28;20196;-39
2023/10/11 04:36:42;;;;;;;8.70;4.07;;;;;;;;;;5085661;28;20200;-38
2023/10/11 04:39:16;;;;;;;5.87;3.83;;;;;;;;;;5089633;28;20228;-36
2023/10/11 04:41:49;;;;;;;8.93;4.33;;;;;;;;;;5082846;28;20204;-38
2023/10/11 04:44:17;;;;;;;8.33;4.57;;;;;;;;;;5078657;28;20197;-38
2023/10/11 04:46:55;;;;;;;8.43;4.53;;;;;;;;;;5079631;28;20308;-37
2023/10/11 04:49:24;;;;;;;6.40;3.93;;;;;;;;;;5076588;28;20207;-38
2023/10/11 04:51:55;;;;;;;8.07;4.70;;;;;;;;;;5089338;28;20258;-39
2023/10/11 04:54:35;;;;;;;6.43;3.77;;;;;;;;;;5095172;28;20225;-36
2023/10/11 04:57:07;;;;;;;8.67;4.40;;;;;;;;;;5087897;28;20216;-39
2023/10/11 04:59:39;;;;;;;7.83;5.00;;;;;;;;;;5083700;28;20232;-36
2023/10/11 05:02:16;;;;;;;5.80;4.30;;;;;;;;;;5089767;28;20203;-42
2023/10/11 05:04:44;;;;;;;8.93;4.33;;;;;;;;;;5089684;28;20293;-34
2023/10/11 05:07:13;;;;;;;8.80;5.00;;;;;;;;;;5079071;28;20214;-36
2023/10/11 05:09:42;;;;;;;8.40;4.40;;;;;;;;;;5088911;28;20617;-42
2023/10/11 05:12:12;;;;;;;6.97;4.07;;;;;;;;;;5080736;28;20209;-35
2023/10/11 05:14:56;;;;;;;10.53;4.60;;;;;;;;;;5084387;28;20205;-42
2023/10/11 05:17:49;;;;;;;6.23;4.40;;;;;;;;;;5089637;28;20613;-40
2023/10/11 05:20:44;;;;;;;6.43;3.97;;;;;;;;;;5081704;28;20225;-38
2023/10/11 05:23:13;;;;;;;6.23;4.00;;;;;;;;;;5088220;28;20208;-35
2023/10/11 05:25:56;;;;;;;8.13;4.90;;;;;;;;;;5088443;28;20201;-39
2023/10/11 05:28:43;;;;;;;6.67;3.90;;;;;;;;;;5079510;28;20193;-38
2023/10/11 05:34:29;;;;;;;7.83;3.83;;;;;;;;;;5087021;28;20212;-41
2023/10/11 05:50:54;;;;;;;6.80;3.80;;;;;;;;;;5087030;28;20235;-36
2023/10/11 05:53:24;;;;;;;7.27;4.40;;;;;;;;;;5088632;28;20577;-34
2023/10/11 05:55:51;;;;;;;7.40;3.90;;;;;;;;;;5092104;28;20225;-34
2023/10/11 05:58:20;;;;;;;6.87;3.40;;;;;;;;;;5080507;28;20216;-33
2023/10/11 06:00:53;;;;;;;7.00;4.20;;;;;;;;;;5092359;28;20225;-35
2023/10/11 06:03:20;;;;;;;8.27;3.67;;;;;;;;;;5084290;28;20199;-39
2023/10/11 06:05:51;;;;;;;6.00;4.40;;;;;;;;;;5087386;28;20236;-37
2023/10/11 06:08:18;;;;;;;5.60;4.03;;;;;;;;;;5090305;28;20292;-33
2023/10/11 06:10:46;;;;;;;9.03;4.23;;;;;;;;;;5091582;28;20220;-36
2023/10/11 06:13:14;;;;;;;7.87;4.57;;;;;;;;;;5083895;28;20225;-35
2023/10/11 06:15:58;;;;;;;6.77;4.00;;;;;;;;;;5087891;28;20200;-36
2023/10/11 06:18:42;;;;;;;6.43;3.90;;;;;;;;;;5084366;28;20220;-37
2023/10/11 06:21:18;;;;;;;7.00;3.60;;;;;;;;;;5088304;28;20311;-37
2023/10/11 06:23:48;;;;;;;7.40;3.90;;;;;;;;;;5091635;28;20205;-35
2023/10/11 06:26:52;;;;;;;6.60;3.87;;;;;;;;;;5088694;28;21255;-35
2023/10/11 06:29:18;;;;;;;5.10;4.00;;;;;;;;;;5090099;28;20200;-34
2023/10/11 06:31:47;;;;;;;6.20;3.50;;;;;;;;;;5091909;28;20224;-38
2023/10/11 06:34:22;;;;;;;7.33;4.00;;;;;;;;;;5090873;28;20204;-38
2023/10/11 06:36:49;;;;;;;7.17;3.33;;;;;;;;;;5089017;28;20196;-38
2023/10/11 06:42:21;;;;;;;8.13;3.73;;;;;;;;;;5026959;28;20210;-37
2023/10/11 06:44:48;;;;;;;7.47;4.50;;;;;;;;;;5024727;28;20245;-40
2023/10/11 06:47:18;;;;;;;8.63;3.93;;;;;;;;;;5057886;28;20209;-36
2023/10/11 06:49:47;;;;;;;5.50;3.60;;;;;;;;;;5093844;28;20217;-40
2023/10/11 06:52:17;;;;;;;7.13;3.53;;;;;;;;;;5094173;28;20210;-33
2023/10/11 06:54:46;;;;;;;6.63;4.30;;;;;;;;;;5103436;28;20204;-35
2023/10/11 06:57:16;;;;;;;9.93;4.23;;;;;;;;;;5099137;28;20209;-34
2023/10/11 06:59:44;;;;;;;5.87;3.77;;;;;;;;;;5087488;28;20311;-41
2023/10/11 07:02:18;;;;;;;10.53;4.17;;;;;;;;;;5095209;28;20209;-38
2023/10/11 07:04:50;;;;;;;8.83;3.90;;;;;;;;;;5094813;28;20208;-34
2023/10/11 07:07:18;;;;;;;6.23;4.33;;;;;;;;;;5084664;28;20209;-34
2023/10/11 07:09:56;;;;;;;5.37;3.80;;;;;;;;;;5080391;28;20221;-38
2023/10/11 07:12:34;;;;;;;12.43;4.80;;;;;;;;;;5083449;28;20197;-38
2023/10/11 07:15:01;;;;;;;10.57;4.60;;;;;;;;;;5089866;28;20216;-39
2023/10/11 07:17:32;;;;;;;7.17;3.90;;;;;;;;;;5094414;28;20259;-41
2023/10/11 07:20:01;;;;;;;7.87;4.13;;;;;;;;;;5093741;28;20228;-36
2023/10/11 07:22:28;;;;;;;9.33;4.53;;;;;;;;;;5085541;28;20205;-34
2023/10/11 07:24:55;;;;;;;8.43;4.70;;;;;;;;;;5092519;28;20238;-38
2023/10/11 07:27:37;;;;;;;9.30;4.90;;;;;;;;;;5086782;28;20204;-37
2023/10/11 07:30:06;;;;;;;7.50;5.10;;;;;;;;;;5093476;28;20216;-38
2023/10/11 07:32:36;;;;;;;9.50;5.30;;;;;;;;;;5094075;28;20254;-37
2023/10/11 07:35:08;;;;;;;5.83;4.03;;;;;;;;;;5090820;28;20249;-32
2023/10/11 07:37:39;;;;;;;7.90;4.60;;;;;;;;;;5093054;28;20310;-42
2023/10/11 07:40:10;;;;;;;7.40;4.40;;;;;;;;;;5093254;28;20321;-39
2023/10/11 07:42:38;;;;;;;9.50;4.53;;;;;;;;;;5080818;28;20206;-33
2023/10/11 07:45:12;;;;;;;8.47;4.50;;;;;;;;;;5084670;28;20208;-37
2023/10/11 07:47:45;;;;;;;8.33;4.53;;;;;;;;;;5093198;28;20207;-39
2023/10/11 07:50:14;;;;;;;11.03;5.13;;;;;;;;;;5092204;28;20231;-37
2023/10/11 07:52:42;;;;;;;10.10;4.80;;;;;;;;;;5088234;28;20268;-39
2023/10/11 07:55:12;;;;;;;8.97;5.50;;;;;;;;;;5090793;28;20204;-33
2023/10/11 07:57:44;;;;;;;7.47;5.33;;;;;;;;;;5085713;28;20196;-34
2023/10/11 08:00:17;;;;;;;7.60;4.93;;;;;;;;;;5090743;28;20236;-38
2023/10/11 08:02:55;;;;;;;8.87;5.20;;;;;;;;;;5091835;28;20206;-37
2023/10/11 08:05:25;;;;;;;7.67;5.33;;;;;;;;;;5092176;28;20219;-37
2023/10/11 08:07:53;;;;;;;10.33;5.60;;;;;;;;;;5081989;28;20203;-37
2023/10/11 08:10:33;;;;;;;10.37;5.87;;;;;;;;;;5093215;28;20241;-35
2023/10/11 08:13:00;;;;;;;12.00;5.20;;;;;;;;;;5079969;28;20202;-37
2023/10/11 08:15:28;;;;;;;13.77;5.47;;;;;;;;;;5087817;28;20201;-36
2023/10/11 08:17:55;;;;;;;10.03;5.37;;;;;;;;;;5093519;28;20208;-36
2023/10/11 08:20:28;;;;;;;6.67;4.87;;;;;;;;;;5092783;28;20228;-37
2023/10/11 08:22:57;;;;;;;14.93;5.50;;;;;;;;;;5089058;28;20219;-39
2023/10/11 08:25:28;;;;;;;9.40;5.27;;;;;;;;;;5092477;28;20318;-33
2023/10/11 08:28:12;;;;;;;9.90;4.87;;;;;;;;;;5083644;28;20294;-39
2023/10/11 08:30:40;;;;;;;10.30;5.27;;;;;;;;;;5092303;28;20221;-32
2023/10/11 08:33:08;;;;;;;12.20;5.63;;;;;;;;;;5092657;28;20287;-42
2023/10/11 08:35:35;;;;;;;9.43;5.57;;;;;;;;;;5088741;28;20204;-35
2023/10/11 08:38:05;;;;;;;15.87;5.20;;;;;;;;;;5087766;28;20215;-39
2023/10/11 08:40:36;;;;;;;7.90;4.90;;;;;;;;;;5089282;28;20224;-36
2023/10/11 08:43:04;;;;;;;12.17;5.53;;;;;;;;;;5075312;28;20306;-34
2023/10/11 08:45:33;;;;;;;12.53;5.67;;;;;;;;;;5090273;28;20215;-34
2023/10/11 08:48:00;;;;;;;10.37;5.50;;;;;;;;;;5094088;28;20200;-37
2023/10/11 08:50:31;;;;;;;8.40;4.40;;;;;;;;;;5092549;28;20223;-35
2023/10/11 08:53:01;;;;;;;9.03;5.10;;;;;;;;;;5097776;28;20204;-42
2023/10/11 08:55:29;;;;;;;10.17;4.93;;;;;;;;;;5094790;28;20205;-39
2023/10/11 08:57:57;;;;;;;11.53;4.90;;;;;;;;;;5080130;28;20213;-35
2023/10/11 09:00:31;;;;;;;9.63;4.67;;;;;;;;;;5085867;28;20233;-36
2023/10/11 09:02:59;;;;;;;10.83;5.20;;;;;;;;;;5094295;28;20209;-32
2023/10/11 09:05:43;;;;;;;8.73;5.20;;;;;;;;;;5089392;28;20197;-41
2023/10/11 09:08:21;;;;;;;9.43;4.97;;;;;;;;;;5079730;28;20201;-38
2023/10/11 09:10:51;;;;;;;10.33;5.07;;;;;;;;;;5089950;28;20236;-40
2023/10/11 09:13:26;;;;;;;9.37;4.57;;;;;;;;;;5074492;28;20217;-38
2023/10/11 09:15:54;;;;;;;7.97;4.83;;;;;;;;;;5087355;28;20212;-38
2023/10/11 09:18:24;;;;;;;9.10;4.83;;;;;;;;;;5091987;28;20213;-41
2023/10/11 09:20:56;;;;;;;8.90;4.57;;;;;;;;;;5088090;28;20317;-33
2023/10/11 09:23:35;;;;;;;7.50;4.47;;;;;;;;;;5091767;28;20204;-35
2023/10/11 09:26:05;;;;;;;8.90;5.20;;;;;;;;;;5086591;28;20211;-35
2023/10/11 09:28:40;;;;;;;9.57;4.73;;;;;;;;;;5083589;28;20205;-40
2023/10/11 09:31:11;;;;;;;11.80;4.83;;;;;;;;;;5092491;28;20227;-39
2023/10/11 09:33:40;;;;;;;9.80;4.67;;;;;;;;;;5094209;28;20196;-39
2023/10/11 09:36:08;;;;;;;9.93;4.47;;;;;;;;;;5092314;28;20204;-37
2023/10/11 09:38:40;;;;;;;10.07;4.13;;;;;;;;;;5084605;28;20216;-38
2023/10/11 09:41:09;;;;;;;13.27;5.23;;;;;;;;;;5092527;28;20232;-39
2023/10/11 09:43:43;;;;;;;9.03;5.20;;;;;;;;;;5081219;28;20273;-37
2023/10/11 09:46:12;;;;;;;8.63;4.10;;;;;;;;;;5088132;28;20277;-36
2023/10/11 09:48:40;;;;;;;9.07;4.20;;;;;;;;;;5091015;28;20232;-37
2023/10/11 09:51:08;;;;;;;8.63;4.20;;;;;;;;;;5091702;28;20227;-35
2023/10/11 09:53:41;;;;;;;9.43;4.17;;;;;;;;;;5076799;28;20200;-40
2023/10/11 09:56:15;;;;;;;6.03;3.60;;;;;;;;;;5091088;28;20295;-31
2023/10/11 09:58:46;;;;;;;11.07;4.07;;;;;;;;;;5087015;28;20278;-39
2023/10/11 10:01:18;;;;;;;9.20;4.10;;;;;;;;;;5087813;28;20307;-37
2023/10/11 10:03:47;;;;;;;11.07;4.30;;;;;;;;;;5091564;28;20209;-39
2023/10/11 10:06:21;;;;;;;9.57;4.00;;;;;;;;;;5081266;28;20300;-39
2023/10/11 10:09:18;;;;;;;14.27;4.30;;;;;;;;;;5087538;28;20206;-37
2023/10/11 10:12:05;;;;;;;11.10;3.77;;;;;;;;;;5078576;28;20297;-38
2023/10/11 10:14:35;;;;;;;9.40;4.10;;;;;;;;;;5083393;28;20207;-38
2023/10/11 10:17:11;;;;;;;7.67;3.50;;;;;;;;;;5091686;28;20214;-37
2023/10/11 10:19:42;;;;;;;9.23;4.30;;;;;;;;;;5079380;28;20231;-37
2023/10/11 10:22:14;;;;;;;13.00;3.67;;;;;;;;;;5082644;28;20289;-42
2023/10/11 10:24:43;;;;;;;9.73;3.90;;;;;;;;;;5089548;28;20212;-36
2023/10/11 10:27:31;;;;;;;9.30;3.30;;;;;;;;;;5080306;28;20221;-38
2023/10/11 10:29:59;;;;;;;9.70;3.90;;;;;;;;;;5081498;28;20297;-36
2023/10/11 10:32:27;;;;;;;8.00;3.23;;;;;;;;;;5091029;28;20216;-37
2023/10/11 10:35:19;;;;;;;8.57;3.43;;;;;;;;;;5091305;28;20204;-37
2023/10/11 10:37:55;;;;;;;8.87;3.53;;;;;;;;;;5080512;28;20205;-34
2023/10/11 10:40:25;;;;;;;14.13;3.30;;;;;;;;;;5089015;28;20228;-38
2023/10/11 10:43:14;;;;;;;7.77;3.10;;;;;;;;;;5082551;28;20201;-38
2023/10/11 10:45:42;;;;;;;9.50;3.30;;;;;;;;;;5083190;28;20208;-37
2023/10/11 10:48:13;;;;;;;7.83;3.20;;;;;;;;;;5090928;28;20200;-31
2023/10/11 10:50:50;;;;;;;12.23;3.13;;;;;;;;;;5077727;28;20266;-38
2023/10/11 10:53:17;;;;;;;8.23;3.43;;;;;;;;;;5089697;28;20210;-36
2023/10/11 10:55:43;;;;;;;7.80;3.60;;;;;;;;;;5090283;28;20205;-41
2023/10/11 10:58:17;;;;;;;8.97;3.07;;;;;;;;;;5079693;28;20200;-37
2023/10/11 11:00:47;;;;;;;11.83;3.03;;;;;;;;;;5083351;28;20217;-33
2023/10/11 11:03:20;;;;;;;11.57;3.20;;;;;;;;;;5089972;28;20209;-41
2023/10/11 11:05:56;;;;;;;17.60;3.30;;;;;;;;;;5078122;28;20211;-40
2023/10/11 11:08:27;;;;;;;6.47;3.30;;;;;;;;;;5086906;28;20196;-36
2023/10/11 11:14:02;;;;;;;12.53;3.43;;;;;;;;;;5139316;27;20933;-38
2023/10/11 11:16:29;;;;;;;9.63;3.53;;;;;;;;;;5148378;27;20212;-41
2023/10/11 11:19:00;;;;;;;8.43;3.73;;;;;;;;;;5149728;27;20205;-34
2023/10/11 11:21:29;;;;;;;12.10;3.10;;;;;;;;;;5144181;27;20218;-35
2023/10/11 11:23:56;;;;;;;8.33;3.57;;;;;;;;;;5144685;27;20213;-37
2023/10/11 11:26:23;;;;;;;6.10;3.50;;;;;;;;;;5145698;27;20210;-35
2023/10/11 11:28:53;;;;;;;10.27;3.60;;;;;;;;;;5144516;27;20209;-41
2023/10/11 11:31:30;;;;;;;10.97;3.67;;;;;;;;;;5132810;27;20234;-36
2023/10/11 11:34:11;;;;;;;6.43;3.23;;;;;;;;;;5141600;27;20295;-40
2023/10/11 11:36:40;;;;;;;7.70;3.40;;;;;;;;;;5139746;27;20209;-39
2023/10/11 11:39:25;;;;;;;9.77;3.13;;;;;;;;;;5142339;27;20191;-43
2023/10/11 11:41:52;;;;;;;8.37;3.33;;;;;;;;;;5127757;27;20203;-40
2023/10/11 11:44:21;;;;;;;8.00;3.47;;;;;;;;;;5131627;27;20606;-40
2023/10/11 11:46:52;;;;;;;9.57;3.37;;;;;;;;;;5129432;27;20305;-40
2023/10/11 11:49:21;;;;;;;11.63;3.10;;;;;;;;;;5134457;27;20199;-37
2023/10/11 11:51:51;;;;;;;6.00;2.83;;;;;;;;;;5137174;27;20324;-43
2023/10/11 11:54:19;;;;;;;7.80;3.17;;;;;;;;;;5142695;27;20332;-43
2023/10/11 11:56:45;;;;;;;12.00;3.97;;;;;;;;;;5142379;27;20207;-40
2023/10/11 11:59:18;;;;;;;11.03;2.93;;;;;;;;;;5144745;27;20203;-40
2023/10/11 12:01:52;;;;;;;7.43;2.93;;;;;;;;;;5142514;27;20196;-37
2023/10/11 12:04:29;;;;;;;8.17;3.43;;;;;;;;;;5132932;27;20684;-40
2023/10/11 12:06:57;;;;;;;7.80;3.10;;;;;;;;;;5138507;27;20199;-37
2023/10/11 12:09:31;;;;;;;9.37;2.70;;;;;;;;;;5135220;27;20589;-39
2023/10/11 12:12:02;;;;;;;6.57;3.23;;;;;;;;;;5131200;27;20306;-42
2023/10/11 12:14:29;;;;;;;8.83;3.07;;;;;;;;;;5129014;27;20727;-41
2023/10/11 12:16:56;;;;;;;8.57;3.47;;;;;;;;;;5142694;27;20302;-35
2023/10/11 12:19:32;;;;;;;13.13;2.93;;;;;;;;;;5144839;27;20285;-42
2023/10/11 12:21:59;;;;;;;8.80;3.50;;;;;;;;;;5133451;27;20302;-35
2023/10/11 12:24:26;;;;;;;8.33;3.33;;;;;;;;;;5129314;27;20201;-34
2023/10/11 12:26:57;;;;;;;5.73;2.87;;;;;;;;;;5128437;27;20209;-34
2023/10/11 12:29:26;;;;;;;7.77;3.23;;;;;;;;;;5131426;27;20291;-33
2023/10/11 12:31:54;;;;;;;7.83;3.00;;;;;;;;;;5126805;27;20212;-36
2023/10/11 12:34:24;;;;;;;6.97;3.10;;;;;;;;;;5132280;27;20213;-34
2023/10/11 12:36:53;;;;;;;8.00;2.73;;;;;;;;;;5122179;27;20243;-35
2023/10/11 12:39:25;;;;;;;8.63;2.43;;;;;;;;;;5121007;27;20214;-41
2023/10/11 12:41:54;;;;;;;6.57;3.10;;;;;;;;;;5116274;27;20198;-40
2023/10/11 12:44:21;;;;;;;8.97;3.07;;;;;;;;;;5128959;27;20220;-38
2023/10/11 12:46:49;;;;;;;8.00;3.03;;;;;;;;;;5133754;27;20209;-37
2023/10/11 12:49:16;;;;;;;6.70;2.47;;;;;;;;;;5134205;27;20208;-35
2023/10/11 12:51:45;;;;;;;8.03;3.10;;;;;;;;;;5119543;27;20564;-37
2023/10/11 12:54:14;;;;;;;7.50;2.63;;;;;;;;;;5133053;27;20721;-36
2023/10/11 12:56:42;;;;;;;13.33;2.80;;;;;;;;;;5126074;27;20213;-39
2023/10/11 12:59:12;;;;;;;9.63;3.17;;;;;;;;;;5127160;27;20215;-39
2023/10/11 13:01:42;;;;;;;5.70;2.60;;;;;;;;;;5134066;27;20205;-41
2023/10/11 13:04:17;;;;;;;7.43;2.97;;;;;;;;;;5122775;27;20663;-39
2023/10/11 13:06:49;;;;;;;9.70;3.30;;;;;;;;;;5120592;27;20301;-37
2023/10/11 13:09:21;;;;;;;6.70;3.00;;;;;;;;;;5130034;27;20224;-36
2023/10/11 13:11:48;;;;;;;6.60;3.07;;;;;;;;;;5118758;27;20212;-41
2023/10/11 13:14:18;;;;;;;6.03;2.67;;;;;;;;;;5127271;27;20203;-33
2023/10/11 13:16:47;;;;;;;8.23;2.80;;;;;;;;;;5113702;28;20564;-39
2023/10/11 13:19:18;;;;;;;4.30;2.80;;;;;;;;;;5120998;27;20206;-35
2023/10/11 13:21:45;;;;;;;7.63;2.50;;;;;;;;;;5116476;27;20207;-38
2023/10/11 13:24:12;;;;;;;8.70;2.37;;;;;;;;;;5124109;27;20206;-41
2023/10/11 13:26:43;;;;;;;6.67;3.13;;;;;;;;;;5117011;27;20198;-37
2023/10/11 13:29:11;;;;;;;5.37;2.60;;;;;;;;;;5113353;27;20210;-37
2023/10/11 13:31:40;;;;;;;6.63;2.43;;;;;;;;;;5115417;27;20222;-41
2023/10/11 13:34:15;;;;;;;6.73;3.00;;;;;;;;;;5119588;27;20237;-39
2023/10/11 13:36:43;;;;;;;10.97;3.13;;;;;;;;;;5126960;27;20233;-42
2023/10/11 13:39:25;;;;;;;9.13;2.83;;;;;;;;;;5122927;27;20284;-40
2023/10/11 13:41:54;;;;;;;5.83;2.70;;;;;;;;;;5111891;27;20616;-34
2023/10/11 13:44:21;;;;;;;7.67;2.97;;;;;;;;;;5122950;27;20211;-37
2023/10/11 13:46:51;;;;;;;7.93;3.20;;;;;;;;;;5121122;27;20659;-35
2023/10/11 13:49:25;;;;;;;4.67;2.57;;;;;;;;;;5121260;27;20290;-37
2023/10/11 13:51:52;;;;;;;5.63;2.03;;;;;;;;;;5116461;27;20291;-34
2023/10/11 13:54:31;;;;;;;7.23;2.97;;;;;;;;;;5122695;27;20221;-37
2023/10/11 13:57:00;;;;;;;7.77;2.50;;;;;;;;;;5118845;27;20298;-34
2023/10/11 13:59:28;;;;;;;6.67;2.43;;;;;;;;;;5121295;27;20211;-42
2023/10/11 14:02:21;;;;;;;5.70;2.30;;;;;;;;;;5121603;27;20241;-35
2023/10/11 14:04:48;;;;;;;9.83;3.13;;;;;;;;;;5116757;27;20214;-41
2023/10/11 14:07:23;;;;;;;7.17;2.60;;;;;;;;;;5120760;27;20236;-40
2023/10/11 14:09:53;;;;;;;7.07;2.20;;;;;;;;;;5132150;27;20638;-39
2023/10/11 14:12:29;;;;;;;4.50;2.30;;;;;;;;;;5114000;27;20214;-37
2023/10/11 14:14:56;;;;;;;3.33;2.40;;;;;;;;;;5112736;27;20209;-38
2023/10/11 14:17:25;;;;;;;10.93;2.80;;;;;;;;;;5115690;27;20575;-38
2023/10/11 14:19:53;;;;;;;4.87;2.80;;;;;;;;;;5116085;27;20324;-40
2023/10/11 14:22:21;;;;;;;4.33;2.33;;;;;;;;;;5128450;27;20302;-39
2023/10/11 14:24:48;;;;;;;7.20;3.03;;;;;;;;;;5116046;27;20343;-39
2023/10/11 14:27:17;;;;;;;7.40;2.37;;;;;;;;;;5124900;27;20621;-38
2023/10/11 14:29:46;;;;;;;5.00;2.23;;;;;;;;;;5122258;27;20309;-42
2023/10/11 14:32:16;;;;;;;8.33;3.43;;;;;;;;;;5113867;28;20212;-35
2023/10/11 14:34:45;;;;;;;4.57;2.67;;;;;;;;;;5129134;27;20206;-43
2023/10/11 14:37:13;;;;;;;5.77;2.80;;;;;;;;;;5112656;27;20207;-37
2023/10/11 14:39:47;;;;;;;4.30;2.47;;;;;;;;;;5129639;27;20229;-34
2023/10/11 14:42:15;;;;;;;5.77;2.50;;;;;;;;;;5122137;27;20205;-34
2023/10/11 14:44:42;;;;;;;4.97;2.20;;;;;;;;;;5115635;27;20224;-42
2023/10/11 14:47:13;;;;;;;7.13;2.70;;;;;;;;;;5128498;27;20203;-41
2023/10/11 14:49:40;;;;;;;3.03;2.20;;;;;;;;;;5119753;27;20282;-38
2023/10/11 14:52:08;;;;;;;7.57;2.63;;;;;;;;;;5117852;27;20202;-39
2023/10/11 14:54:39;;;;;;;7.77;3.00;;;;;;;;;;5124012;27;20225;-35
2023/10/11 14:57:06;;;;;;;8.87;2.57;;;;;;;;;;5114282;27;20224;-37
2023/10/11 14:59:35;;;;;;;6.93;2.53;;;;;;;;;;5128216;27;20257;-40
2023/10/11 15:02:02;;;;;;;4.47;2.37;;;;;;;;;;5120956;27;20206;-38
2023/10/11 15:04:30;;;;;;;5.30;1.93;;;;;;;;;;5113028;27;20203;-34
2023/10/11 15:06:57;;;;;;;5.63;2.40;;;;;;;;;;5113988;27;20261;-35
2023/10/11 15:09:25;;;;;;;5.73;2.83;;;;;;;;;;5122553;27;20204;-37
2023/10/11 15:11:53;;;;;;;6.13;3.57;;;;;;;;;;5112825;28;20211;-35
2023/10/11 15:14:20;;;;;;;5.17;2.40;;;;;;;;;;5122949;28;20223;-41
2023/10/11 15:16:49;;;;;;;5.43;2.73;;;;;;;;;;5113936;28;20268;-37
2023/10/11 15:19:16;;;;;;;4.23;2.50;;;;;;;;;;5124943;28;20194;-33
2023/10/11 15:21:44;;;;;;;5.97;2.67;;;;;;;;;;5120165;28;20207;-32
2023/10/11 15:24:13;;;;;;;5.57;2.47;;;;;;;;;;5117306;27;20225;-40
2023/10/11 15:26:40;;;;;;;6.03;2.30;;;;;;;;;;5113748;27;20206;-34
2023/10/11 15:29:10;;;;;;;5.57;2.50;;;;;;;;;;5126080;27;20222;-39